LHPR/QGY METAR and TAF weather

Enter ICAO airport designator
Station Type Date Time Source
LHPR METAR 2020/09/19 18:45 UTC NOAA

LHPR 191845Z AUTO 17003KT 130V200 CAVOK 14/07 Q1020


Station Type Date Time Source
LHPR Decoded METAR 2020/09/19 18:45 UTC NOAA

Station name not available
Sep 19, 2020 - 02:45 PM EDT / 2020.09.19 1845 UTC
Wind: from the S (170 degrees) at 3 MPH (3 KT) (direction variable):0
Visibility: greater than 7 mile(s):0
Temperature: 57 F (14 C)
Dew Point: 44 F (7 C)
Relative Humidity: 62%
Pressure (altimeter): 30.12 in. Hg (1020 hPa)
ob: LHPR 191845Z AUTO 17003KT 130V200 CAVOK 14/07 Q1020
cycle: 19

Station Type Date Time Source
LHPR TAF UTC NOAA

Error!

Example: see airport list